createdAt,value
2017-10-15T00:01:38.146Z,8.00
2017-10-15T00:04:05.585Z,7.90
2017-10-15T00:06:33.027Z,7.90
2017-10-15T00:09:00.475Z,7.80
2017-10-15T00:11:28.318Z,7.80
2017-10-15T00:13:57.134Z,7.80
2017-10-15T00:16:24.564Z,7.80
2017-10-15T00:18:52.547Z,7.80
2017-10-15T00:21:19.976Z,7.70
2017-10-15T00:23:48.432Z,7.70
2017-10-15T00:26:15.862Z,7.70
2017-10-15T00:28:43.623Z,7.70
2017-10-15T00:31:11.059Z,7.70
2017-10-15T00:33:38.482Z,7.70
2017-10-15T00:36:06.690Z,7.80
2017-10-15T00:38:34.669Z,7.80
2017-10-15T00:41:02.174Z,7.80
2017-10-15T00:43:29.607Z,7.80
2017-10-15T00:45:57.045Z,7.70
2017-10-15T00:48:24.495Z,7.70
2017-10-15T00:50:52.486Z,7.70
2017-10-15T00:53:19.923Z,7.60
2017-10-15T00:55:47.362Z,7.60
2017-10-15T00:58:17.206Z,7.50
2017-10-15T01:00:44.658Z,7.40
2017-10-15T01:03:12.091Z,7.40
2017-10-15T01:05:39.526Z,7.40
2017-10-15T01:08:07.770Z,7.40
2017-10-15T01:10:35.221Z,7.30
2017-10-15T01:13:02.651Z,7.50
2017-10-15T01:15:30.099Z,7.60
2017-10-15T01:17:57.535Z,7.70
2017-10-15T01:20:26.146Z,7.70
2017-10-15T01:22:53.573Z,7.70
2017-10-15T01:25:21.738Z,7.70
2017-10-15T01:27:49.949Z,7.60
2017-10-15T01:30:17.374Z,7.60
2017-10-15T01:32:46.136Z,7.60
2017-10-15T01:35:13.583Z,7.60
2017-10-15T01:37:41.021Z,7.60
2017-10-15T01:40:08.469Z,7.50
2017-10-15T01:42:35.901Z,7.40
2017-10-15T01:45:03.332Z,7.30
2017-10-15T01:47:31.407Z,7.30
2017-10-15T01:49:58.827Z,7.20
2017-10-15T01:52:26.274Z,7.20
2017-10-15T01:54:53.700Z,7.10
2017-10-15T01:57:21.139Z,7.10
2017-10-15T01:59:49.336Z,6.90
2017-10-15T02:02:16.775Z,6.90
2017-10-15T02:04:44.990Z,6.80
2017-10-15T02:07:12.443Z,6.80
2017-10-15T02:09:40.441Z,6.80
2017-10-15T02:12:07.873Z,6.80
2017-10-15T02:14:35.302Z,6.80
2017-10-15T02:17:03.378Z,6.80
2017-10-15T02:19:30.816Z,6.70
2017-10-15T02:21:59.022Z,6.70
2017-10-15T02:24:26.447Z,6.70
2017-10-15T02:26:54.661Z,6.50
2017-10-15T02:29:22.929Z,6.50
2017-10-15T02:31:50.363Z,6.50
2017-10-15T02:34:18.576Z,6.50
2017-10-15T02:36:46.012Z,6.50
2017-10-15T02:39:13.455Z,6.60
2017-10-15T02:41:42.072Z,6.50
2017-10-15T02:44:09.507Z,6.50
2017-10-15T02:46:37.510Z,6.40
2017-10-15T02:49:05.506Z,6.40
2017-10-15T02:51:33.471Z,6.40
2017-10-15T02:54:01.315Z,6.40
2017-10-15T02:56:29.142Z,6.40
2017-10-15T02:58:57.336Z,6.30
2017-10-15T03:01:24.774Z,6.30
2017-10-15T03:03:52.221Z,6.30
2017-10-15T03:06:20.682Z,6.20
2017-10-15T03:08:48.517Z,6.20
2017-10-15T03:11:15.989Z,6.20
2017-10-15T03:13:43.440Z,6.20
2017-10-15T03:16:10.868Z,6.20
2017-10-15T03:18:38.316Z,6.20
2017-10-15T03:21:06.583Z,6.10
2017-10-15T03:23:34.777Z,6.10
2017-10-15T03:26:02.507Z,6.10
2017-10-15T03:28:29.960Z,6.10
2017-10-15T03:30:58.153Z,6.10
2017-10-15T03:33:26.211Z,6.10
2017-10-15T03:35:55.457Z,6.00
2017-10-15T03:38:22.900Z,6.00
2017-10-15T03:40:50.339Z,5.90
2017-10-15T03:43:17.782Z,5.90
2017-10-15T03:45:46.415Z,6.00
2017-10-15T03:48:13.861Z,5.90
2017-10-15T03:50:41.303Z,6.00
2017-10-15T03:53:09.267Z,5.90
2017-10-15T03:55:37.500Z,5.90
2017-10-15T03:58:05.482Z,5.90
2017-10-15T04:00:32.931Z,5.90
2017-10-15T04:03:00.345Z,5.90
2017-10-15T04:05:27.789Z,5.90
2017-10-15T04:07:56.538Z,6.10
2017-10-15T04:10:23.981Z,6.20
2017-10-15T04:12:51.413Z,6.30
2017-10-15T04:15:19.302Z,6.50
2017-10-15T04:17:46.739Z,6.60
2017-10-15T04:20:14.535Z,6.80
2017-10-15T04:22:42.107Z,7.00
2017-10-15T04:25:10.375Z,7.00
2017-10-15T04:27:38.223Z,7.20
2017-10-15T04:30:05.685Z,7.30
2017-10-15T04:32:33.131Z,7.30
2017-10-15T04:35:01.021Z,7.40
2017-10-15T04:37:28.463Z,7.50
2017-10-15T04:39:56.212Z,7.50
2017-10-15T04:42:24.202Z,7.60
2017-10-15T04:44:51.640Z,7.60
2017-10-15T04:47:19.611Z,7.60
2017-10-15T04:49:47.047Z,7.60
2017-10-15T04:52:14.485Z,7.60
2017-10-15T04:54:41.917Z,7.60
2017-10-15T04:57:09.365Z,7.70
2017-10-15T04:59:36.801Z,7.70
2017-10-15T05:02:04.253Z,7.70
2017-10-15T05:04:31.685Z,7.70
2017-10-15T05:06:59.133Z,7.70
2017-10-15T05:09:26.563Z,7.80
2017-10-15T05:11:54.929Z,7.80
2017-10-15T05:14:22.353Z,7.80
2017-10-15T05:16:49.796Z,7.90
2017-10-15T05:19:17.238Z,7.90
2017-10-15T05:21:44.686Z,7.90
2017-10-15T05:24:12.115Z,7.90
2017-10-15T05:26:40.033Z,8.00
2017-10-15T05:29:07.471Z,8.00
2017-10-15T05:31:34.930Z,8.00
2017-10-15T05:34:02.368Z,7.90
2017-10-15T05:36:30.573Z,7.90
2017-10-15T05:38:58.022Z,7.80
2017-10-15T05:41:25.446Z,7.80
2017-10-15T05:43:53.692Z,7.80
2017-10-15T05:46:21.122Z,7.70
2017-10-15T05:48:48.556Z,7.70
2017-10-15T05:51:15.983Z,7.70
2017-10-15T05:53:43.428Z,7.70
2017-10-15T05:56:11.619Z,7.70
2017-10-15T05:58:39.070Z,7.70
2017-10-15T06:01:06.884Z,7.70
2017-10-15T06:03:37.418Z,7.80
2017-10-15T06:06:04.851Z,7.80
2017-10-15T06:08:33.048Z,7.90
2017-10-15T06:11:01.811Z,7.90
2017-10-15T06:13:30.022Z,8.00
2017-10-15T06:15:57.464Z,8.00
2017-10-15T06:18:24.907Z,8.10
2017-10-15T06:20:52.366Z,8.10
2017-10-15T06:23:19.811Z,8.20
2017-10-15T06:25:47.999Z,8.40
2017-10-15T06:28:15.446Z,8.40
2017-10-15T06:30:42.893Z,8.40
2017-10-15T06:33:11.104Z,8.60
2017-10-15T06:35:38.551Z,8.60
2017-10-15T06:38:06.037Z,8.70
2017-10-15T06:40:33.486Z,8.70
2017-10-15T06:43:00.927Z,8.80
2017-10-15T06:45:28.359Z,8.90
2017-10-15T06:47:57.442Z,9.00
2017-10-15T06:50:26.298Z,9.00
2017-10-15T06:52:53.714Z,9.00
2017-10-15T06:55:21.162Z,9.10
2017-10-15T06:57:49.361Z,9.30
2017-10-15T07:00:16.800Z,9.30
2017-10-15T07:02:44.236Z,9.40
2017-10-15T07:05:12.439Z,9.40
2017-10-15T07:07:39.874Z,9.40
2017-10-15T07:10:08.919Z,9.50
2017-10-15T07:12:36.352Z,9.50
2017-10-15T07:15:03.794Z,9.60
2017-10-15T07:17:31.984Z,9.80
2017-10-15T07:19:59.418Z,9.80
2017-10-15T07:22:27.620Z,9.90
2017-10-15T07:24:55.067Z,9.90
2017-10-15T07:27:23.787Z,10.10
2017-10-15T07:29:51.234Z,10.20
2017-10-15T07:32:19.155Z,10.20
2017-10-15T07:34:47.365Z,10.30
2017-10-15T07:37:14.829Z,10.30
2017-10-15T07:39:42.255Z,10.50
2017-10-15T07:42:10.480Z,10.80
2017-10-15T07:44:37.910Z,10.80
2017-10-15T07:47:05.356Z,10.90
2017-10-15T07:49:33.291Z,11.00
2017-10-15T07:52:01.498Z,11.10
2017-10-15T07:54:28.966Z,11.00
2017-10-15T07:56:56.806Z,11.20
2017-10-15T07:59:24.985Z,11.50
2017-10-15T08:01:52.433Z,11.50
2017-10-15T08:04:20.629Z,11.60
2017-10-15T08:06:48.069Z,11.60
2017-10-15T08:09:16.277Z,11.70
2017-10-15T08:11:44.258Z,11.70
2017-10-15T08:14:11.696Z,11.60
2017-10-15T08:16:39.415Z,11.60
2017-10-15T08:19:06.838Z,11.50
2017-10-15T08:21:34.889Z,11.60
2017-10-15T08:24:02.331Z,11.50
2017-10-15T08:26:30.200Z,11.40
2017-10-15T08:28:57.638Z,11.50
2017-10-15T08:31:25.854Z,11.90
2017-10-15T08:33:53.311Z,11.80
2017-10-15T08:36:20.784Z,12.10
2017-10-15T08:38:50.146Z,12.20
2017-10-15T08:41:17.580Z,12.40
2017-10-15T08:43:45.007Z,12.60
2017-10-15T08:46:12.460Z,12.70
2017-10-15T08:48:40.475Z,12.70
2017-10-15T08:51:08.676Z,12.60
2017-10-15T08:53:36.132Z,12.60
2017-10-15T08:56:03.570Z,12.40
2017-10-15T08:58:31.026Z,12.40
2017-10-15T09:00:59.224Z,12.80
2017-10-15T09:03:26.678Z,12.70
2017-10-15T09:05:54.128Z,13.00
2017-10-15T09:08:22.003Z,12.90
2017-10-15T09:10:49.877Z,13.10
2017-10-15T09:13:17.334Z,13.50
2017-10-15T09:15:44.797Z,13.60
2017-10-15T09:18:12.242Z,13.80
2017-10-15T09:20:39.700Z,13.80
2017-10-15T09:23:07.701Z,13.90
2017-10-15T09:25:35.138Z,14.00
2017-10-15T09:28:03.138Z,14.20
2017-10-15T09:30:30.706Z,14.10
2017-10-15T09:32:58.151Z,14.30
2017-10-15T09:35:25.586Z,14.30
2017-10-15T09:37:53.039Z,14.50
2017-10-15T09:40:20.495Z,14.70
2017-10-15T09:42:47.981Z,14.60
2017-10-15T09:45:15.408Z,14.60
2017-10-15T09:47:42.851Z,14.60
2017-10-15T09:50:10.303Z,14.80
2017-10-15T09:52:37.753Z,14.90
2017-10-15T09:55:05.210Z,15.00
2017-10-15T09:57:32.650Z,14.90
2017-10-15T10:00:00.867Z,14.90
2017-10-15T10:02:28.861Z,14.90
2017-10-15T10:04:56.307Z,15.00
2017-10-15T10:07:26.204Z,15.00
2017-10-15T10:09:53.658Z,14.90
2017-10-15T10:12:21.082Z,14.90
2017-10-15T10:14:49.298Z,14.90
2017-10-15T10:17:16.736Z,14.90
2017-10-15T10:19:44.691Z,15.00
2017-10-15T10:22:12.358Z,15.00
2017-10-15T10:24:39.806Z,15.20
2017-10-15T10:27:07.250Z,15.40
2017-10-15T10:29:34.721Z,15.60
2017-10-15T10:32:02.930Z,15.90
2017-10-15T10:34:31.759Z,15.90
2017-10-15T10:36:59.199Z,15.90
2017-10-15T10:39:26.662Z,16.10
2017-10-15T10:41:54.135Z,16.10
2017-10-15T10:44:21.558Z,15.90
2017-10-15T10:46:49.002Z,15.70
2017-10-15T10:49:16.448Z,15.80
2017-10-15T10:51:43.899Z,16.00
2017-10-15T10:54:11.333Z,16.10
2017-10-15T10:56:39.882Z,16.50
2017-10-15T10:59:07.318Z,16.40
2017-10-15T11:01:34.772Z,16.40
2017-10-15T11:04:02.244Z,16.10
2017-10-15T11:06:29.672Z,15.70
2017-10-15T11:08:57.106Z,15.60
2017-10-15T11:11:25.855Z,15.40
2017-10-15T11:13:53.516Z,15.40
2017-10-15T11:16:20.970Z,15.40
2017-10-15T11:18:48.410Z,15.50
2017-10-15T11:21:15.858Z,15.70
2017-10-15T11:23:43.655Z,15.70
2017-10-15T11:26:11.109Z,15.60
2017-10-15T11:28:38.559Z,15.50
2017-10-15T11:31:06.444Z,15.50
2017-10-15T11:33:34.310Z,15.60
2017-10-15T11:36:01.783Z,15.70
2017-10-15T11:38:29.218Z,15.90
2017-10-15T11:40:57.672Z,16.30
2017-10-15T11:43:25.129Z,16.60
2017-10-15T11:45:53.895Z,16.60
2017-10-15T11:48:21.346Z,16.60
2017-10-15T11:50:48.787Z,16.40
2017-10-15T11:53:17.137Z,16.40
2017-10-15T11:55:44.581Z,16.40
2017-10-15T11:58:12.051Z,16.20
2017-10-15T12:00:40.805Z,16.50
2017-10-15T12:03:08.272Z,16.70
2017-10-15T12:05:36.258Z,16.90
2017-10-15T12:08:03.711Z,16.80
2017-10-15T12:10:31.164Z,16.70
2017-10-15T12:12:58.643Z,16.90
2017-10-15T12:15:27.048Z,17.10
2017-10-15T12:17:55.424Z,17.30
2017-10-15T12:20:23.638Z,17.60
2017-10-15T12:22:51.084Z,17.50
2017-10-15T12:25:18.519Z,17.70
2017-10-15T12:27:46.727Z,17.60
2017-10-15T12:30:14.172Z,17.50
2017-10-15T12:32:41.629Z,17.40
2017-10-15T12:35:09.054Z,17.20
2017-10-15T12:37:37.270Z,17.40
2017-10-15T12:40:04.956Z,17.40
2017-10-15T12:42:32.430Z,17.60
2017-10-15T12:44:59.883Z,18.00
2017-10-15T12:47:27.323Z,18.10
2017-10-15T12:49:54.890Z,18.10
2017-10-15T12:52:22.342Z,18.60
2017-10-15T12:54:49.781Z,18.90
2017-10-15T12:57:17.283Z,19.00
2017-10-15T12:59:44.709Z,19.30
2017-10-15T13:02:12.161Z,19.20
2017-10-15T13:04:39.618Z,19.00
2017-10-15T13:07:07.063Z,18.50
2017-10-15T13:09:34.526Z,18.50
2017-10-15T13:12:01.961Z,19.30
2017-10-15T13:14:29.418Z,20.20
2017-10-15T13:16:56.857Z,20.20
2017-10-15T13:19:25.075Z,21.40
2017-10-15T13:21:52.556Z,21.30
2017-10-15T13:24:20.011Z,21.80
2017-10-15T13:26:47.458Z,22.70
2017-10-15T13:29:14.911Z,23.10
2017-10-15T13:31:42.639Z,23.60
2017-10-15T13:34:10.847Z,23.20
2017-10-15T13:36:38.290Z,23.20
2017-10-15T13:39:05.756Z,22.80
2017-10-15T13:41:33.265Z,22.70
2017-10-15T13:44:01.483Z,23.10
2017-10-15T13:46:28.934Z,23.10
2017-10-15T13:48:56.397Z,23.60
2017-10-15T13:51:23.867Z,23.50
2017-10-15T13:53:51.315Z,23.40
2017-10-15T13:56:18.757Z,23.00
2017-10-15T13:58:46.194Z,23.70
2017-10-15T14:01:14.572Z,24.90
2017-10-15T14:03:42.765Z,24.80
2017-10-15T14:06:10.218Z,24.80
2017-10-15T14:08:37.692Z,25.30
2017-10-15T14:11:05.130Z,25.70
2017-10-15T14:13:32.570Z,25.50
2017-10-15T14:16:00.796Z,24.60
2017-10-15T14:18:28.228Z,24.50
2017-10-15T14:20:55.672Z,24.50
2017-10-15T14:23:23.876Z,24.80
2017-10-15T14:25:51.542Z,24.80
2017-10-15T14:28:18.978Z,25.10
2017-10-15T14:30:46.438Z,25.20
2017-10-15T14:33:16.720Z,24.50
2017-10-15T14:35:44.732Z,24.00
2017-10-15T14:38:12.168Z,24.20
2017-10-15T14:40:40.370Z,24.00
2017-10-15T14:43:07.832Z,24.00
2017-10-15T14:45:35.333Z,23.90
2017-10-15T14:48:02.793Z,24.10
2017-10-15T14:50:30.246Z,24.50
2017-10-15T14:52:57.709Z,24.90
2017-10-15T14:55:25.154Z,25.10
2017-10-15T14:57:52.602Z,25.20
2017-10-15T15:00:20.043Z,25.30
2017-10-15T15:02:47.490Z,25.50
2017-10-15T15:05:14.944Z,25.20
2017-10-15T15:07:42.406Z,25.10
2017-10-15T15:10:09.826Z,25.00
2017-10-15T15:12:38.049Z,23.50
2017-10-15T15:15:06.091Z,23.40
2017-10-15T15:17:33.542Z,22.40
2017-10-15T15:20:00.982Z,21.10
2017-10-15T15:22:30.097Z,19.10
2017-10-15T15:24:57.530Z,19.10
2017-10-15T15:27:25.760Z,17.90
2017-10-15T15:29:53.203Z,17.90
2017-10-15T15:32:20.660Z,17.50
2017-10-15T15:34:48.089Z,17.30
2017-10-15T15:37:15.538Z,17.10
2017-10-15T15:39:43.753Z,16.60
2017-10-15T15:42:12.063Z,16.50
2017-10-15T15:44:39.506Z,16.40
2017-10-15T15:47:06.954Z,16.20
2017-10-15T15:49:34.399Z,16.20
2017-10-15T15:52:01.852Z,16.10
2017-10-15T15:54:29.297Z,16.00
2017-10-15T15:56:56.755Z,16.10
2017-10-15T15:59:24.203Z,16.20
2017-10-15T16:01:51.638Z,16.40
2017-10-15T16:04:19.857Z,16.30
2017-10-15T16:06:47.970Z,16.30
2017-10-15T16:09:15.419Z,16.20
2017-10-15T16:11:43.475Z,16.00
2017-10-15T16:14:10.930Z,15.90
2017-10-15T16:16:38.371Z,15.60
2017-10-15T16:19:05.830Z,15.40
2017-10-15T16:21:33.269Z,15.10
2017-10-15T16:24:00.711Z,14.90
2017-10-15T16:26:28.950Z,14.30
2017-10-15T16:28:56.395Z,14.30
2017-10-15T16:31:24.236Z,14.10
2017-10-15T16:33:51.683Z,13.80
2017-10-15T16:36:19.698Z,13.60
2017-10-15T16:38:47.138Z,13.40
2017-10-15T16:41:14.585Z,13.20
2017-10-15T16:43:42.450Z,13.00
2017-10-15T16:46:10.214Z,12.90
2017-10-15T16:48:37.778Z,12.90
2017-10-15T16:51:05.226Z,12.80
2017-10-15T16:53:33.183Z,12.60
2017-10-15T16:56:00.622Z,12.50
2017-10-15T16:58:28.823Z,12.30
2017-10-15T17:00:56.679Z,12.30
2017-10-15T17:03:25.285Z,12.10
2017-10-15T17:05:53.138Z,12.10
2017-10-15T17:08:20.577Z,12.00
2017-10-15T17:10:49.224Z,11.90
2017-10-15T17:13:16.668Z,11.80
2017-10-15T17:15:44.108Z,11.70
2017-10-15T17:18:11.542Z,11.50
2017-10-15T17:20:39.445Z,11.40
2017-10-15T17:23:06.890Z,11.20
2017-10-15T17:25:34.346Z,11.00
2017-10-15T17:28:01.772Z,10.90
2017-10-15T17:30:30.434Z,10.70
2017-10-15T17:32:57.971Z,10.70
2017-10-15T17:35:25.433Z,10.60
2017-10-15T17:37:52.867Z,10.50
2017-10-15T17:40:20.335Z,10.40
2017-10-15T17:42:48.055Z,10.40
2017-10-15T17:45:16.518Z,10.30
2017-10-15T17:47:44.056Z,10.30
2017-10-15T17:50:11.494Z,10.30
2017-10-15T17:52:38.970Z,10.20
2017-10-15T17:55:06.414Z,10.10
2017-10-15T17:57:33.859Z,10.10
2017-10-15T18:00:01.330Z,10.10
2017-10-15T18:02:30.694Z,10.00
2017-10-15T18:04:58.136Z,10.00
2017-10-15T18:07:26.321Z,9.80
2017-10-15T18:09:53.763Z,9.80
2017-10-15T18:12:21.970Z,9.70
2017-10-15T18:14:49.973Z,9.70
2017-10-15T18:17:17.419Z,9.70
2017-10-15T18:19:44.871Z,9.60
2017-10-15T18:22:12.311Z,9.60
2017-10-15T18:24:39.761Z,9.60
2017-10-15T18:27:07.198Z,9.60
2017-10-15T18:29:35.397Z,9.40
2017-10-15T18:32:02.850Z,9.30
2017-10-15T18:34:30.290Z,9.30
2017-10-15T18:36:59.034Z,9.20
2017-10-15T18:39:26.484Z,9.20
2017-10-15T18:41:53.921Z,9.10
2017-10-15T18:44:21.476Z,9.10
2017-10-15T18:46:48.903Z,9.10
2017-10-15T18:49:17.099Z,8.90
2017-10-15T18:51:44.538Z,8.90
2017-10-15T18:54:11.982Z,8.90
2017-10-15T18:56:40.195Z,8.80
2017-10-15T18:59:07.633Z,8.80
2017-10-15T19:01:35.078Z,8.80
2017-10-15T19:04:03.282Z,8.70
2017-10-15T19:06:31.257Z,8.70
2017-10-15T19:08:58.692Z,8.70
2017-10-15T19:11:26.369Z,8.70
2017-10-15T19:13:53.806Z,8.70
2017-10-15T19:16:21.257Z,8.60
2017-10-15T19:18:50.386Z,8.60
2017-10-15T19:21:18.027Z,8.60
2017-10-15T19:23:46.273Z,8.60
2017-10-15T19:26:13.792Z,8.60
2017-10-15T19:28:42.230Z,8.50
2017-10-15T19:31:10.438Z,8.30
2017-10-15T19:33:37.958Z,8.30
2017-10-15T19:36:06.166Z,8.20
2017-10-15T19:38:33.621Z,8.20
2017-10-15T19:41:01.181Z,8.20
2017-10-15T19:43:28.633Z,8.20
2017-10-15T19:45:56.183Z,8.20
2017-10-15T19:48:23.655Z,8.10
2017-10-15T19:50:51.098Z,8.10
2017-10-15T19:53:18.635Z,8.10
2017-10-15T19:55:47.667Z,8.10
2017-10-15T19:58:15.107Z,8.00
2017-10-15T20:00:43.110Z,8.10
2017-10-15T20:03:10.567Z,8.10
2017-10-15T20:05:38.847Z,7.90
2017-10-15T20:08:06.303Z,7.90
2017-10-15T20:10:33.883Z,7.90
2017-10-15T20:13:01.318Z,7.80
2017-10-15T20:15:28.767Z,7.80
2017-10-15T20:17:56.201Z,7.70
2017-10-15T20:20:23.658Z,7.70
2017-10-15T20:22:51.091Z,7.70
2017-10-15T20:25:19.434Z,7.60
2017-10-15T20:27:46.866Z,7.70
2017-10-15T20:30:14.309Z,7.70
2017-10-15T20:32:41.749Z,7.60
2017-10-15T20:35:09.974Z,7.40
2017-10-15T20:37:38.378Z,7.40
2017-10-15T20:40:05.835Z,7.40
2017-10-15T20:42:33.268Z,7.40
2017-10-15T20:45:00.759Z,7.30
2017-10-15T20:47:28.984Z,7.30
2017-10-15T20:49:57.266Z,7.30
2017-10-15T20:52:25.261Z,7.30
2017-10-15T20:54:52.698Z,7.30
2017-10-15T20:57:20.133Z,7.20
2017-10-15T20:59:47.636Z,7.20
2017-10-15T21:02:15.052Z,7.20
2017-10-15T21:04:42.497Z,7.30
2017-10-15T21:07:12.787Z,7.20
2017-10-15T21:09:40.247Z,7.20
2017-10-15T21:12:07.999Z,7.30
2017-10-15T21:14:35.434Z,7.30
2017-10-15T21:17:02.870Z,7.20
2017-10-15T21:19:31.029Z,7.20
2017-10-15T21:21:58.466Z,7.20
2017-10-15T21:24:26.680Z,7.30
2017-10-15T21:26:54.831Z,7.20
2017-10-15T21:29:23.025Z,7.30
2017-10-15T21:31:50.493Z,7.20
2017-10-15T21:34:17.934Z,7.30
2017-10-15T21:36:45.403Z,7.20
2017-10-15T21:39:12.850Z,7.30
2017-10-15T21:41:40.419Z,7.30
2017-10-15T21:44:07.973Z,7.30
2017-10-15T21:46:35.734Z,7.40
2017-10-15T21:49:03.171Z,7.40
2017-10-15T21:51:30.618Z,7.40
2017-10-15T21:53:58.823Z,7.50
2017-10-15T21:56:26.279Z,7.50
2017-10-15T21:58:54.320Z,7.70
2017-10-15T22:01:22.527Z,7.80
2017-10-15T22:03:49.957Z,7.80
2017-10-15T22:06:18.174Z,7.80
2017-10-15T22:08:46.006Z,7.80
2017-10-15T22:11:14.214Z,7.70
2017-10-15T22:13:42.056Z,7.70
2017-10-15T22:16:10.691Z,7.70
2017-10-15T22:18:43.949Z,7.60
2017-10-15T22:21:17.066Z,7.60
2017-10-15T22:23:44.516Z,7.50
2017-10-15T22:26:11.945Z,7.50
2017-10-15T22:28:39.484Z,7.50
2017-10-15T22:31:06.922Z,7.40
2017-10-15T22:33:35.581Z,7.30
2017-10-15T22:36:03.006Z,7.30
2017-10-15T22:38:30.451Z,7.20
2017-10-15T22:40:57.879Z,7.10
2017-10-15T22:43:26.091Z,7.10
2017-10-15T22:45:54.102Z,7.10
2017-10-15T22:48:21.804Z,7.10
2017-10-15T22:50:49.998Z,7.00
2017-10-15T22:53:17.447Z,7.00
2017-10-15T22:55:44.875Z,7.00
2017-10-15T22:58:13.087Z,7.00
2017-10-15T23:00:41.107Z,7.00
2017-10-15T23:03:08.530Z,7.00
2017-10-15T23:05:35.970Z,7.00
2017-10-15T23:08:03.412Z,7.00
2017-10-15T23:10:30.850Z,7.00
2017-10-15T23:12:59.063Z,7.00
2017-10-15T23:15:26.502Z,7.00
2017-10-15T23:17:54.756Z,7.00
2017-10-15T23:20:22.975Z,7.10
2017-10-15T23:22:50.968Z,7.00
2017-10-15T23:25:18.422Z,7.10
2017-10-15T23:27:45.851Z,7.10
2017-10-15T23:30:13.851Z,7.00
2017-10-15T23:32:42.006Z,7.00
2017-10-15T23:35:09.451Z,7.00
2017-10-15T23:37:36.890Z,7.10
2017-10-15T23:40:04.868Z,7.10
2017-10-15T23:42:32.718Z,7.20
2017-10-15T23:45:00.926Z,7.30
2017-10-15T23:47:28.894Z,7.30
2017-10-15T23:49:56.334Z,7.30
2017-10-15T23:52:23.770Z,7.30
2017-10-15T23:54:52.410Z,7.30
2017-10-15T23:57:19.847Z,7.20
2017-10-15T23:59:47.310Z,7.20
